Latest Weather Observations for Bushy Park

IDT60901

Issued at 10:31 pm EST Wednesday 26 September 2018 (issued every 10 minutes, with the page automatically refreshed every 10 minutes)

About weather observations | Map of Hobart area stations | Latest observations for Hobart area | Other Formats
Station Details ID: 095003 Name: BUSHY PARK (BUSHY PARK ESTATES) Lat: -42.71 Lon: 146.90 Height: 27.0 m
Data from the previous 72 hours. | See also: Recent months at Bushy Park
Date/Time
EST
Temp
°C
App
Temp
°C
Dew
Point
°C
Rel
Hum
%
Delta-T
°C
Wind Press
QNH
hPa
Press
MSL
hPa
Rain since
9am
mm
Dir  Spd
km/h
Gust
km/h
Spd
kts
Gust
kts
26/10:30pm 4.5 1.9 3.3 92 0.5 WSW 6 9 3 5 - - 0.0
26/10:00pm 4.9 2.7 3.5 91 0.6 WSW 4 9 2 5 - - 0.0
26/09:30pm 5.5 3.0 3.6 87 0.8 WSW 6 7 3 4 - - 0.0
26/09:00pm 6.7 5.0 4.2 84 1.1 ESE 2 7 1 4 - - 0.0
26/08:30pm 7.5 5.2 4.6 82 1.3 ESE 6 11 3 6 - - 0.0
26/08:00pm 8.8 5.6 5.0 77 1.7 S 11 13 6 7 - - 0.0
26/07:30pm 10.5 7.2 4.8 68 2.6 SSE 11 15 6 8 - - 0.0
26/07:00pm 11.6 7.5 4.4 61 3.3 SE 15 20 8 11 - - 0.0
26/06:30pm 12.6 8.1 4.1 56 3.8 SE 17 20 9 11 - - 0.0
26/06:00pm 12.2 9.6 5.9 65 3.0 S 9 11 5 6 - - 0.0
26/05:30pm 13.5 11.2 5.0 56 4.0 SSW 6 7 3 4 - - 0.0
26/05:00pm 15.2 13.0 3.2 44 5.4 SSW 4 9 2 5 - - 0.0
26/04:30pm 15.9 13.2 2.4 40 6.1 SW 6 7 3 4 - - 0.0
26/04:00pm 16.6 13.1 1.0 35 6.8 N 9 13 5 7 - - 0.0
26/03:30pm 16.4 14.2 1.3 36 6.6 SE 2 7 1 4 - - 0.0
26/03:00pm 15.8 12.0 -0.4 33 6.8 NNE 9 13 5 7 - - 0.0
26/02:30pm 15.8 12.7 1.3 37 6.3 E 7 11 4 6 - - 0.0
26/02:00pm 15.3 12.6 2.7 42 5.7 E 6 15 3 8 - - 0.0
26/01:30pm 14.3 11.5 1.8 42 5.5 N 6 15 3 8 - - 0.0
26/01:00pm 14.4 11.3 3.5 48 4.9 NNW 9 13 5 7 - - 0.0
26/12:30pm 14.2 10.5 2.3 44 5.2 NNE 11 17 6 9 - - 0.0
26/12:00pm 12.6 9.8 3.2 52 4.2 NW 7 9 4 5 - - 0.0
26/11:30am 11.9 9.4 3.9 58 3.6 S 6 7 3 4 - - 0.0
26/11:00am 11.1 7.9 2.9 57 3.6 E 9 13 5 7 - - 0.0
26/10:30am 10.0 7.2 2.9 61 3.1 NE 7 13 4 7 - - 0.0
26/10:00am 9.4 6.2 3.2 65 2.7 N 9 13 5 7 - - 0.0
26/09:30am 8.4 5.7 3.6 72 2.1 N 7 13 4 7 - - 0.0
26/09:00am 6.7 3.9 2.9 77 1.6 NNE 7 11 4 6 - - 0.2
26/08:30am 5.0 2.2 2.3 83 1.1 NNE 6 7 3 4 - - 0.2
26/08:00am 3.7 0.5 0.9 82 1.1 N 7 9 4 5 - - 0.2
26/07:30am 2.1 -0.9 0.5 89 0.6 N 6 7 3 4 - - 0.2
26/07:00am 1.6 -0.7 0.5 92 0.4 NNW 2 7 1 4 - - 0.2
26/06:30am 0.8 -1.2 -0.3 92 0.4 CALM 0 0 0 0 - - 0.2
26/06:00am 0.9 -1.1 -0.2 92 0.4 CALM 0 7 0 4 - - 0.2
26/05:30am 0.6 - - - - CALM 0 0 0 0 - - 0.2
26/05:00am 0.3 - - - - WSW 6 7 3 4 - - 0.2
26/04:30am 0.8 -1.6 0.0 94 0.3 S 2 7 1 4 - - 0.2
26/04:00am 1.5 -0.8 0.7 94 0.3 S 2 9 1 5 - - 0.2
26/03:30am 1.6 -1.0 1.1 96 0.2 WNW 4 7 2 4 - - 0.2
26/03:00am 1.5 -2.1 0.4 92 0.4 SW 9 11 5 6 - - 0.2
26/02:00am 1.3 -1.4 0.5 94 0.3 SSW 4 7 2 4 - - 0.2
26/01:30am 2.0 -1.2 1.0 93 0.4 SW 7 9 4 5 - - 0.2
26/01:00am 2.6 0.1 1.6 93 0.4 SW 4 9 2 5 - - 0.2
26/12:30am 3.5 1.1 2.3 92 0.5 WSW 4 9 2 5 - - 0.2
26/12:00am 4.9 3.4 3.2 89 0.7 CALM 0 0 0 0 - - 0.2
 
Date/Time
EST
Temp
°C
App
Temp
°C
Dew
Point
°C
Rel
Hum
%
Delta-T
°C
Wind Press
QNH
hPa
Press
MSL
hPa
Rain since
9am
mm
Dir  Spd
km/h
Gust
km/h
Spd
kts
Gust
kts
25/11:30pm 5.4 2.2 3.0 84 1.0 NW 9 13 5 7 - - 0.2
25/11:00pm 4.9 2.0 2.7 86 0.9 W 7 11 4 6 - - 0.2
25/10:30pm 4.2 0.8 1.7 84 1.0 WSW 9 13 5 7 - - 0.2
25/10:00pm 4.2 0.1 2.0 85 0.9 SW 13 15 7 8 - - 0.2
25/09:30pm 5.1 1.0 2.2 81 1.2 SSW 13 13 7 7 - - 0.2
25/09:00pm 5.7 2.0 2.6 80 1.3 SSW 11 15 6 8 - - 0.2
25/08:30pm 6.9 2.9 2.6 74 1.8 S 13 17 7 9 - - 0.2
25/08:00pm 8.1 4.1 2.7 69 2.3 S 13 17 7 9 - - 0.2
25/07:30pm 9.3 5.2 2.5 62 2.9 S 13 15 7 8 - - 0.2
25/07:00pm 10.2 5.3 2.3 58 3.4 SE 17 24 9 13 - - 0.2
25/06:30pm 10.4 6.3 2.5 58 3.4 SE 13 24 7 13 - - 0.2
25/06:00pm 11.3 7.3 2.6 55 3.8 SSW 13 19 7 10 - - 0.2
25/05:30pm 12.4 7.5 2.1 49 4.4 S 17 24 9 13 - - 0.2
25/05:00pm 13.6 9.2 2.9 48 4.8 SSW 15 20 8 11 - - 0.2
25/04:30pm 14.3 11.6 2.7 45 5.2 NE 6 9 3 5 - - 0.2
25/04:00pm 14.8 11.3 1.0 39 5.9 NNE 9 11 5 6 - - 0.2
25/03:30pm 14.3 10.7 3.0 46 5.1 N 11 13 6 7 - - 0.2
25/03:00pm 12.9 10.4 3.6 53 4.2 ESE 6 7 3 4 - - 0.2
25/02:30pm 12.6 10.2 4.3 57 3.8 ESE 6 11 3 6 - - 0.2
25/02:00pm 11.7 7.7 4.7 62 3.2 SSE 15 22 8 12 - - 0.2
25/01:30pm 13.5 10.2 2.5 47 4.8 NNW 9 13 5 7 - - 0.2
25/01:00pm 13.0 9.8 3.2 51 4.4 NE 9 15 5 8 - - 0.2
25/12:30pm 11.6 8.7 4.6 62 3.2 ENE 9 11 5 6 - - 0.2
25/12:00pm 11.4 8.7 3.8 59 3.4 ENE 7 15 4 8 - - 0.0
25/11:30am 12.3 8.2 2.5 51 4.3 NNE 13 19 7 10 - - 0.0
25/11:00am 12.0 8.4 3.0 54 4.0 N 11 17 6 9 - - 0.0
25/10:30am 11.6 7.8 4.1 60 3.4 N 13 19 7 10 - - 0.0
25/10:00am 11.0 7.6 3.9 61 3.2 N 11 17 6 9 - - 0.0
25/09:30am 9.9 6.9 4.3 68 2.5 NNE 9 13 5 7 - - 0.0
25/09:00am 9.5 6.4 3.8 67 2.5 N 9 13 5 7 - - 0.0
25/08:30am 7.3 4.7 3.3 76 1.7 N 6 7 3 4 - - 0.0
25/08:00am 7.5 4.3 3.0 73 1.9 N 9 11 5 6 - - 0.0
25/07:30am 5.7 4.3 3.8 87 0.8 CALM 0 0 0 0 - - 0.0
25/07:00am 3.9 2.0 2.7 92 0.5 NNE 2 7 1 4 - - 0.0
25/06:30am 3.3 0.5 2.3 93 0.4 W 6 9 3 5 - - 0.0
25/06:00am 3.0 -0.1 1.2 88 0.7 SW 7 9 4 5 - - 0.0
25/05:30am 2.2 0.5 1.7 96 0.2 CALM 0 0 0 0 - - 0.0
25/05:00am 2.5 0.0 1.5 93 0.4 N 4 7 2 4 - - 0.0
25/04:30am 2.7 -0.2 1.7 93 0.4 W 6 9 3 5 - - 0.0
25/04:00am 2.7 1.0 1.7 93 0.4 CALM 0 0 0 0 - - 0.0
25/03:30am 3.1 -0.3 1.8 91 0.5 N 9 15 5 8 - - 0.0
25/03:00am 2.4 -0.5 1.4 93 0.4 SW 6 9 3 5 - - 0.0
25/02:30am 2.2 0.0 1.2 93 0.4 WNW 2 6 1 3 - - 0.0
25/02:00am 2.1 -0.5 1.1 93 0.4 NW 4 9 2 5 - - 0.0
25/01:30am 1.7 -1.4 0.4 91 0.5 W 6 11 3 6 - - 0.0
25/01:00am 1.9 -1.1 0.6 91 0.5 N 6 9 3 5 - - 0.0
25/12:30am 2.2 0.4 0.9 91 0.5 CALM 0 0 0 0 - - 0.0
25/12:00am 2.9 -0.2 1.4 90 0.6 NNW 7 9 4 5 - - 0.0
 
Date/Time
EST
Temp
°C
App
Temp
°C
Dew
Point
°C
Rel
Hum
%
Delta-T
°C
Wind Press
QNH
hPa
Press
MSL
hPa
Rain since
9am
mm
Dir  Spd
km/h
Gust
km/h
Spd
kts
Gust
kts
24/11:30pm 2.7 -0.8 1.4 91 0.5 NW 9 13 5 7 - - 0.0
24/11:00pm 3.2 -1.0 1.7 90 0.6 WNW 13 17 7 9 - - 0.0
24/10:30pm 3.9 0.5 1.9 87 0.8 W 9 15 5 8 - - 0.0
24/10:00pm 4.5 0.7 2.0 84 1.0 WNW 11 15 6 8 - - 0.0
24/09:30pm 5.2 2.2 2.0 80 1.3 W 7 11 4 6 - - 0.0
24/09:00pm 6.5 2.7 1.6 71 2.0 WNW 11 15 6 8 - - 0.0
24/08:30pm 6.8 2.6 1.7 70 2.1 WSW 13 19 7 10 - - 0.0
24/08:00pm 7.2 2.9 1.3 66 2.4 WSW 13 22 7 12 - - 0.0
24/07:30pm 7.7 2.7 1.1 63 2.7 WSW 17 28 9 15 - - 0.0
24/07:00pm 8.0 2.7 1.7 64 2.6 WSW 19 28 10 15 - - 0.0
24/06:30pm 8.3 2.0 1.5 62 2.8 SW 24 33 13 18 - - 0.0
24/06:00pm 8.8 3.2 1.3 59 3.1 SW 20 32 11 17 - - 0.0
24/05:30pm 9.4 5.1 1.2 56 3.4 SW 13 22 7 12 - - 0.0
24/05:00pm 10.4 6.3 2.3 57 3.4 WSW 13 22 7 12 - - 0.0
24/04:30pm 10.7 6.4 0.9 50 4.1 WSW 13 20 7 11 - - 0.0
24/04:00pm 12.3 7.8 2.2 50 4.4 WSW 15 22 8 12 - - 0.0
24/03:30pm 12.5 8.2 0.7 44 4.9 WSW 13 20 7 11 - - 0.0
24/03:00pm 12.7 8.7 0.3 42 5.2 WNW 11 17 6 9 - - 0.0
24/02:30pm 12.6 6.9 -0.5 40 5.3 SW 19 32 10 17 - - 0.0
24/02:00pm 11.8 7.3 -0.4 43 5.0 WSW 13 24 7 13 - - 0.0
24/01:30pm 13.3 8.6 0.6 42 5.3 WSW 15 26 8 14 - - 0.0
24/01:00pm 12.9 8.0 -0.7 39 5.5 W 15 26 8 14 - - 0.0
24/12:30pm 12.9 8.4 0.0 41 5.3 W 13 24 7 13 - - 0.0
24/12:00pm 12.5 7.7 0.0 42 5.2 WSW 15 24 8 13 - - 0.0
24/11:30am 12.1 7.6 -0.6 41 5.1 W 13 20 7 11 - - 0.0
24/11:00am 10.4 5.7 -1.5 43 4.6 W 13 22 7 12 - - 0.0
24/10:30am 10.4 6.2 -0.8 46 4.4 W 11 19 6 10 - - 0.0
24/10:00am 9.5 5.8 -0.2 51 3.9 SSW 9 17 5 9 - - 0.0
24/09:30am 9.3 4.5 0.5 54 3.6 N 15 19 8 10 - - 0.0
24/09:00am 7.2 2.8 0.1 60 2.8 N 13 17 7 9 - - 0.2
24/08:30am 6.1 2.5 0.5 67 2.2 N 9 11 5 6 - - 0.2
24/08:00am 4.9 1.6 0.0 70 1.9 N 7 9 4 5 - - 0.2
24/07:30am 4.4 0.7 0.2 74 1.6 NNW 9 11 5 6 - - 0.2
24/07:00am 3.6 -0.1 0.2 78 1.3 NNW 9 11 5 6 - - 0.2
24/06:30am 3.1 -0.5 0.5 83 1.0 NW 9 11 5 6 - - 0.2
24/06:00am 3.1 0.0 0.2 81 1.1 NNW 6 11 3 6 - - 0.2
24/05:30am 3.1 -0.2 0.2 81 1.1 N 7 7 4 4 - - 0.2
24/05:00am 3.1 -0.2 0.2 81 1.1 NNW 7 9 4 5 - - 0.2
24/04:30am 3.1 0.0 0.2 81 1.1 N 6 9 3 5 - - 0.2
24/04:00am 3.3 -0.7 0.4 81 1.1 NW 11 15 6 8 - - 0.2
24/03:30am 3.4 -0.3 0.2 79 1.2 NNW 9 11 5 6 - - 0.2
24/03:00am 3.3 -0.4 0.1 79 1.2 N 9 11 5 6 - - 0.2
24/02:30am 3.5 -0.5 0.6 81 1.1 N 11 15 6 8 - - 0.2
24/02:00am 3.8 -0.5 0.7 80 1.2 NNW 13 17 7 9 - - 0.2
24/01:30am 3.6 -0.3 1.0 83 1.0 NW 11 13 6 7 - - 0.2
24/01:00am 3.3 -0.2 1.5 88 0.7 NW 9 11 5 6 - - 0.2
24/12:30am 3.2 0.7 1.7 90 0.6 S 4 7 2 4 - - 0.2
24/12:00am 4.2 2.5 1.7 84 1.0 CALM 0 0 0 0 - - 0.2
 
Date/Time
EST
Temp
°C
App
Temp
°C
Dew
Point
°C
Rel
Hum
%
Delta-T
°C
Wind Press
QNH
hPa
Press
MSL
hPa
Rain since
9am
mm
Dir  Spd
km/h
Gust
km/h
Spd
kts
Gust
kts
23/11:30pm 4.3 2.2 1.8 84 1.0 N 2 7 1 4 - - 0.2
23/11:00pm 4.6 1.5 1.6 81 1.2 SW 7 9 4 5 - - 0.2

Latest Capital City Observations: Canberra | Sydney | Melbourne | Brisbane | Adelaide | Perth | Hobart | Darwin

Other Formats:

Comma delimited format used in spreadsheet applications
http://www.bom.gov.au/fwo/IDT60901/IDT60901.94964.axf

JavaScript Object Notation format (JSON) in row-major order
http://www.bom.gov.au/fwo/IDT60901/IDT60901.94964.json